EHMA

Awg-1 Sea

Awg-1 Sea, The Netherlands
METAR EHMA 190625Z AUTO 26012KT 9999 FEW035 SCT042 BKN049 04/02 Q1002 W///H///
Observed Flight Rules
Jan-19 @ 06:25 UTC (43 minutes ago) Visual Flight Rules
Wind Visibility Clouds
260° at 12 knots 10,000+ meters
  • Few at 3,500' AGL
  • Scattered at 4,200' AGL
  • Broken at 4,900' AGL
Temperatures Readings
Current 4°C / 39°F
Dewpoint 2°C / 36°F
Humidity 87%
Altimeter 29.59" Hg
Pressure 1002 hPa
Elevation 50
METAR EHMA 190625Z AUTO 26012KT 9999 FEW035 SCT042 BKN049 04/02 Q1002 W///H///
Observed Flight Rules
Jan-19 @ 06:25 UTC
(43 minutes ago)
VFR
Wind Visibility
260° at 12 knots 10,000+ meters
Clouds
  • Few at 3,500' AGL
  • Scattered at 4,200' AGL
  • Broken at 4,900' AGL
Temperature Dewpoint
4°C / 39°F 2°C / 36°F
Humidity Altimeter Pressure
87% 29.59" Hg 1002 hPa